Main page
METAR-TAF:

METAR-TAF

Airports :

Schenectady County Airport

Schenectady, New York, United States

latitude: 42-51N, longitude: 073-56W, elevation: 377 ft

Current weather observation

The report was made 27 minutes ago, at 18:55 UTC
Wind 16 mph from the Southwest with gusts up to 23 mph
Temperature 30°F
Humidity 40%
Pressure 29.71 in. Hg
Visibility: 10 miles
Overcast at a height of 6500 ft

METAR: KSCH 281855Z 23014G20KT 10SM OVC065 M01/M13 A2971

Time: 14:22 (19:22 UTC)


TAF: missing

Weather observations and forecasts of more than 4000 airports (METAR and TAF reports).

The available stations are represented by yellow and red dots on the map.

Hover mouse over dot to see the name of the station.

Then click to see weather observations and forecasts.

To change the map : click on the green buttons with a black cross to zoom in, on the green button with a dash to zoom out, or on the green arrows for adjacent maps.


METAR-TAF: